sensor_id;sensor_type;location;lat;lon;timestamp;P1;durP1;ratioP1;P2;durP2;ratioP2
8279;SDS011;8335;42.646;23.380;2023-03-15T00:01:51;7.40;;;4.93;;
8279;SDS011;8335;42.646;23.380;2023-03-15T00:04:18;8.07;;;5.43;;
8279;SDS011;8335;42.646;23.380;2023-03-15T00:06:45;6.83;;;4.47;;
8279;SDS011;8335;42.646;23.380;2023-03-15T00:09:12;7.30;;;3.87;;
8279;SDS011;8335;42.646;23.380;2023-03-15T00:11:39;7.13;;;4.13;;
8279;SDS011;8335;42.646;23.380;2023-03-15T00:14:05;6.33;;;3.77;;
8279;SDS011;8335;42.646;23.380;2023-03-15T00:16:33;6.97;;;3.87;;
8279;SDS011;8335;42.646;23.380;2023-03-15T00:19:00;8.23;;;4.23;;
8279;SDS011;8335;42.646;23.380;2023-03-15T00:21:27;6.53;;;4.10;;
8279;SDS011;8335;42.646;23.380;2023-03-15T00:23:54;8.87;;;4.00;;
8279;SDS011;8335;42.646;23.380;2023-03-15T00:26:21;5.63;;;3.83;;
8279;SDS011;8335;42.646;23.380;2023-03-15T00:28:48;5.63;;;3.80;;
8279;SDS011;8335;42.646;23.380;2023-03-15T00:31:17;6.90;;;3.77;;
8279;SDS011;8335;42.646;23.380;2023-03-15T00:33:47;5.80;;;3.80;;
8279;SDS011;8335;42.646;23.380;2023-03-15T00:36:18;7.20;;;3.70;;
8279;SDS011;8335;42.646;23.380;2023-03-15T00:38:48;5.20;;;3.83;;
8279;SDS011;8335;42.646;23.380;2023-03-15T00:41:16;5.40;;;3.47;;
8279;SDS011;8335;42.646;23.380;2023-03-15T00:43:43;5.27;;;3.80;;
8279;SDS011;8335;42.646;23.380;2023-03-15T00:46:10;4.50;;;3.77;;
8279;SDS011;8335;42.646;23.380;2023-03-15T00:48:38;7.43;;;4.13;;
8279;SDS011;8335;42.646;23.380;2023-03-15T00:51:07;6.60;;;3.97;;
8279;SDS011;8335;42.646;23.380;2023-03-15T00:53:35;6.00;;;3.67;;
8279;SDS011;8335;42.646;23.380;2023-03-15T00:56:04;5.30;;;3.90;;
8279;SDS011;8335;42.646;23.380;2023-03-15T00:58:31;5.53;;;3.80;;
8279;SDS011;8335;42.646;23.380;2023-03-15T01:00:58;5.93;;;3.90;;
8279;SDS011;8335;42.646;23.380;2023-03-15T01:03:26;5.73;;;3.67;;
8279;SDS011;8335;42.646;23.380;2023-03-15T01:05:52;5.13;;;3.67;;
8279;SDS011;8335;42.646;23.380;2023-03-15T01:08:21;5.03;;;3.90;;
8279;SDS011;8335;42.646;23.380;2023-03-15T01:10:48;6.13;;;3.90;;
8279;SDS011;8335;42.646;23.380;2023-03-15T01:13:15;6.33;;;4.03;;
8279;SDS011;8335;42.646;23.380;2023-03-15T01:15:44;6.67;;;4.57;;
8279;SDS011;8335;42.646;23.380;2023-03-15T01:18:13;8.43;;;4.60;;
8279;SDS011;8335;42.646;23.380;2023-03-15T01:20:41;7.53;;;3.77;;
8279;SDS011;8335;42.646;23.380;2023-03-15T01:23:09;6.50;;;4.70;;
8279;SDS011;8335;42.646;23.380;2023-03-15T01:25:37;6.30;;;3.80;;
8279;SDS011;8335;42.646;23.380;2023-03-15T01:28:04;6.87;;;4.00;;
8279;SDS011;8335;42.646;23.380;2023-03-15T01:30:31;6.67;;;3.43;;
8279;SDS011;8335;42.646;23.380;2023-03-15T01:32:58;5.00;;;3.37;;
8279;SDS011;8335;42.646;23.380;2023-03-15T01:35:25;5.27;;;3.73;;
8279;SDS011;8335;42.646;23.380;2023-03-15T01:37:51;5.63;;;3.83;;
8279;SDS011;8335;42.646;23.380;2023-03-15T01:40:18;9.03;;;4.23;;
8279;SDS011;8335;42.646;23.380;2023-03-15T01:42:51;6.70;;;4.00;;
8279;SDS011;8335;42.646;23.380;2023-03-15T01:48:27;5.13;;;4.00;;
8279;SDS011;8335;42.646;23.380;2023-03-15T01:50:57;7.00;;;3.83;;
8279;SDS011;8335;42.646;23.380;2023-03-15T01:53:26;7.53;;;4.23;;
8279;SDS011;8335;42.646;23.380;2023-03-15T01:55:55;6.13;;;3.93;;
8279;SDS011;8335;42.646;23.380;2023-03-15T01:58:24;8.17;;;4.03;;
8279;SDS011;8335;42.646;23.380;2023-03-15T02:00:52;8.10;;;3.93;;
8279;SDS011;8335;42.646;23.380;2023-03-15T02:03:20;5.27;;;3.77;;
8279;SDS011;8335;42.646;23.380;2023-03-15T02:05:50;6.70;;;4.13;;
8279;SDS011;8335;42.646;23.380;2023-03-15T02:08:23;6.30;;;4.70;;
8279;SDS011;8335;42.646;23.380;2023-03-15T02:10:55;7.10;;;4.07;;
8279;SDS011;8335;42.646;23.380;2023-03-15T02:13:27;5.80;;;4.10;;
8279;SDS011;8335;42.646;23.380;2023-03-15T02:15:56;9.13;;;4.33;;
8279;SDS011;8335;42.646;23.380;2023-03-15T02:18:23;8.20;;;3.80;;
8279;SDS011;8335;42.646;23.380;2023-03-15T02:20:53;6.40;;;3.73;;
8279;SDS011;8335;42.646;23.380;2023-03-15T02:23:26;7.80;;;4.53;;
8279;SDS011;8335;42.646;23.380;2023-03-15T02:25:57;7.67;;;4.07;;
8279;SDS011;8335;42.646;23.380;2023-03-15T02:28:39;6.83;;;3.60;;
8279;SDS011;8335;42.646;23.380;2023-03-15T02:31:07;6.97;;;3.50;;
8279;SDS011;8335;42.646;23.380;2023-03-15T02:33:35;6.97;;;3.80;;
8279;SDS011;8335;42.646;23.380;2023-03-15T02:36:09;5.93;;;4.10;;
8279;SDS011;8335;42.646;23.380;2023-03-15T02:38:39;8.80;;;4.10;;
8279;SDS011;8335;42.646;23.380;2023-03-15T02:41:06;5.33;;;3.80;;
8279;SDS011;8335;42.646;23.380;2023-03-15T02:43:33;5.27;;;3.60;;
8279;SDS011;8335;42.646;23.380;2023-03-15T02:46:03;4.53;;;3.30;;
8279;SDS011;8335;42.646;23.380;2023-03-15T02:48:30;6.90;;;3.77;;
8279;SDS011;8335;42.646;23.380;2023-03-15T02:50:59;6.87;;;4.20;;
8279;SDS011;8335;42.646;23.380;2023-03-15T02:53:27;6.47;;;3.87;;
8279;SDS011;8335;42.646;23.380;2023-03-15T02:55:55;10.13;;;4.33;;
8279;SDS011;8335;42.646;23.380;2023-03-15T02:58:21;5.53;;;3.73;;
8279;SDS011;8335;42.646;23.380;2023-03-15T03:00:48;8.23;;;5.23;;
8279;SDS011;8335;42.646;23.380;2023-03-15T03:03:18;7.47;;;4.70;;
8279;SDS011;8335;42.646;23.380;2023-03-15T03:05:45;6.83;;;5.00;;
8279;SDS011;8335;42.646;23.380;2023-03-15T03:08:12;11.17;;;5.90;;
8279;SDS011;8335;42.646;23.380;2023-03-15T03:10:40;7.23;;;5.07;;
8279;SDS011;8335;42.646;23.380;2023-03-15T03:13:07;10.37;;;5.73;;
8279;SDS011;8335;42.646;23.380;2023-03-15T03:15:35;8.77;;;5.40;;
8279;SDS011;8335;42.646;23.380;2023-03-15T03:18:02;9.77;;;5.43;;
8279;SDS011;8335;42.646;23.380;2023-03-15T03:20:30;9.20;;;5.60;;
8279;SDS011;8335;42.646;23.380;2023-03-15T03:22:57;12.83;;;5.37;;
8279;SDS011;8335;42.646;23.380;2023-03-15T03:25:29;6.87;;;4.37;;
8279;SDS011;8335;42.646;23.380;2023-03-15T03:27:57;7.30;;;4.73;;
8279;SDS011;8335;42.646;23.380;2023-03-15T03:30:24;10.53;;;5.00;;
8279;SDS011;8335;42.646;23.380;2023-03-15T03:32:50;6.80;;;4.70;;
8279;SDS011;8335;42.646;23.380;2023-03-15T03:35:17;7.97;;;4.40;;
8279;SDS011;8335;42.646;23.380;2023-03-15T03:37:45;9.13;;;5.00;;
8279;SDS011;8335;42.646;23.380;2023-03-15T03:40:12;9.23;;;5.17;;
8279;SDS011;8335;42.646;23.380;2023-03-15T03:42:39;10.80;;;5.37;;
8279;SDS011;8335;42.646;23.380;2023-03-15T03:45:06;9.93;;;5.80;;
8279;SDS011;8335;42.646;23.380;2023-03-15T03:47:34;8.87;;;4.70;;
8279;SDS011;8335;42.646;23.380;2023-03-15T03:50:00;11.80;;;5.70;;
8279;SDS011;8335;42.646;23.380;2023-03-15T03:52:27;7.83;;;4.63;;
8279;SDS011;8335;42.646;23.380;2023-03-15T03:54:56;8.60;;;4.87;;
8279;SDS011;8335;42.646;23.380;2023-03-15T03:57:22;6.77;;;4.40;;
8279;SDS011;8335;42.646;23.380;2023-03-15T03:59:49;9.77;;;4.50;;
8279;SDS011;8335;42.646;23.380;2023-03-15T04:02:16;6.40;;;4.80;;
8279;SDS011;8335;42.646;23.380;2023-03-15T04:04:43;8.13;;;4.37;;
8279;SDS011;8335;42.646;23.380;2023-03-15T04:07:14;7.07;;;4.67;;
8279;SDS011;8335;42.646;23.380;2023-03-15T04:09:41;7.70;;;4.60;;
8279;SDS011;8335;42.646;23.380;2023-03-15T04:12:09;10.23;;;5.90;;
8279;SDS011;8335;42.646;23.380;2023-03-15T04:14:36;7.87;;;5.10;;
8279;SDS011;8335;42.646;23.380;2023-03-15T04:17:03;9.47;;;4.70;;
8279;SDS011;8335;42.646;23.380;2023-03-15T04:19:30;7.77;;;5.07;;
8279;SDS011;8335;42.646;23.380;2023-03-15T04:21:57;8.07;;;4.47;;
8279;SDS011;8335;42.646;23.380;2023-03-15T04:24:31;8.50;;;5.23;;
8279;SDS011;8335;42.646;23.380;2023-03-15T04:26:58;8.40;;;5.40;;
8279;SDS011;8335;42.646;23.380;2023-03-15T04:29:27;9.10;;;5.33;;
8279;SDS011;8335;42.646;23.380;2023-03-15T04:31:54;9.50;;;5.10;;
8279;SDS011;8335;42.646;23.380;2023-03-15T04:34:26;10.87;;;5.53;;
8279;SDS011;8335;42.646;23.380;2023-03-15T04:36:53;7.87;;;5.10;;
8279;SDS011;8335;42.646;23.380;2023-03-15T04:39:20;7.47;;;5.33;;
8279;SDS011;8335;42.646;23.380;2023-03-15T04:41:48;10.77;;;5.53;;
8279;SDS011;8335;42.646;23.380;2023-03-15T04:44:15;12.30;;;6.23;;
8279;SDS011;8335;42.646;23.380;2023-03-15T04:46:43;9.33;;;5.80;;
8279;SDS011;8335;42.646;23.380;2023-03-15T04:49:10;8.63;;;5.40;;
8279;SDS011;8335;42.646;23.380;2023-03-15T04:51:37;8.40;;;5.50;;
8279;SDS011;8335;42.646;23.380;2023-03-15T04:54:04;7.53;;;5.30;;
8279;SDS011;8335;42.646;23.380;2023-03-15T04:56:31;8.63;;;5.43;;
8279;SDS011;8335;42.646;23.380;2023-03-15T04:58:57;9.13;;;5.60;;
8279;SDS011;8335;42.646;23.380;2023-03-15T05:01:26;10.50;;;5.23;;
8279;SDS011;8335;42.646;23.380;2023-03-15T05:03:56;8.13;;;5.47;;
8279;SDS011;8335;42.646;23.380;2023-03-15T05:06:24;9.87;;;5.40;;
8279;SDS011;8335;42.646;23.380;2023-03-15T05:08:50;9.17;;;6.37;;
8279;SDS011;8335;42.646;23.380;2023-03-15T05:11:17;9.00;;;5.07;;
8279;SDS011;8335;42.646;23.380;2023-03-15T05:13:44;10.17;;;5.97;;
8279;SDS011;8335;42.646;23.380;2023-03-15T05:16:11;9.47;;;5.73;;
8279;SDS011;8335;42.646;23.380;2023-03-15T05:18:38;9.77;;;5.73;;
8279;SDS011;8335;42.646;23.380;2023-03-15T05:21:07;9.57;;;5.73;;
8279;SDS011;8335;42.646;23.380;2023-03-15T05:23:34;8.93;;;5.60;;
8279;SDS011;8335;42.646;23.380;2023-03-15T05:26:01;9.57;;;5.93;;
8279;SDS011;8335;42.646;23.380;2023-03-15T05:28:27;9.87;;;5.83;;
8279;SDS011;8335;42.646;23.380;2023-03-15T05:30:55;7.50;;;5.77;;
8279;SDS011;8335;42.646;23.380;2023-03-15T05:33:23;11.20;;;6.03;;
8279;SDS011;8335;42.646;23.380;2023-03-15T05:35:50;7.53;;;5.70;;
8279;SDS011;8335;42.646;23.380;2023-03-15T05:38:21;10.40;;;6.43;;
8279;SDS011;8335;42.646;23.380;2023-03-15T05:40:50;9.87;;;5.97;;
8279;SDS011;8335;42.646;23.380;2023-03-15T05:43:17;8.00;;;5.27;;
8279;SDS011;8335;42.646;23.380;2023-03-15T05:45:44;10.20;;;6.53;;
8279;SDS011;8335;42.646;23.380;2023-03-15T05:48:12;13.97;;;6.43;;
8279;SDS011;8335;42.646;23.380;2023-03-15T05:50:39;13.93;;;7.57;;
8279;SDS011;8335;42.646;23.380;2023-03-15T05:53:06;17.13;;;6.70;;
8279;SDS011;8335;42.646;23.380;2023-03-15T05:55:34;11.47;;;5.70;;
8279;SDS011;8335;42.646;23.380;2023-03-15T05:58:01;12.03;;;6.40;;
8279;SDS011;8335;42.646;23.380;2023-03-15T06:00:28;10.60;;;5.87;;
8279;SDS011;8335;42.646;23.380;2023-03-15T06:02:54;12.10;;;6.13;;
8279;SDS011;8335;42.646;23.380;2023-03-15T06:05:21;9.50;;;5.73;;
8279;SDS011;8335;42.646;23.380;2023-03-15T06:07:48;10.33;;;5.27;;
8279;SDS011;8335;42.646;23.380;2023-03-15T06:10:15;15.33;;;6.33;;
8279;SDS011;8335;42.646;23.380;2023-03-15T06:12:43;13.13;;;6.73;;
8279;SDS011;8335;42.646;23.380;2023-03-15T06:15:10;9.27;;;5.63;;
8279;SDS011;8335;42.646;23.380;2023-03-15T06:17:37;8.10;;;5.73;;
8279;SDS011;8335;42.646;23.380;2023-03-15T06:20:04;12.87;;;6.10;;
8279;SDS011;8335;42.646;23.380;2023-03-15T06:22:31;10.47;;;6.00;;
8279;SDS011;8335;42.646;23.380;2023-03-15T06:24:58;10.13;;;5.47;;
8279;SDS011;8335;42.646;23.380;2023-03-15T06:27:27;7.93;;;5.07;;
8279;SDS011;8335;42.646;23.380;2023-03-15T06:29:55;12.00;;;5.23;;
8279;SDS011;8335;42.646;23.380;2023-03-15T06:32:22;11.70;;;6.10;;
8279;SDS011;8335;42.646;23.380;2023-03-15T06:34:49;6.77;;;5.13;;
8279;SDS011;8335;42.646;23.380;2023-03-15T06:37:16;11.20;;;5.33;;
8279;SDS011;8335;42.646;23.380;2023-03-15T06:39:43;6.23;;;4.90;;
8279;SDS011;8335;42.646;23.380;2023-03-15T06:42:09;8.03;;;5.40;;
8279;SDS011;8335;42.646;23.380;2023-03-15T06:44:37;6.47;;;4.57;;
8279;SDS011;8335;42.646;23.380;2023-03-15T06:47:05;8.73;;;4.93;;
8279;SDS011;8335;42.646;23.380;2023-03-15T06:49:32;10.47;;;5.13;;
8279;SDS011;8335;42.646;23.380;2023-03-15T06:51:59;8.33;;;4.77;;
8279;SDS011;8335;42.646;23.380;2023-03-15T06:54:26;13.80;;;6.80;;
8279;SDS011;8335;42.646;23.380;2023-03-15T06:56:53;17.95;;;7.10;;
8279;SDS011;8335;42.646;23.380;2023-03-15T06:59:19;15.68;;;6.50;;
8279;SDS011;8335;42.646;23.380;2023-03-15T07:01:46;12.48;;;6.00;;
8279;SDS011;8335;42.646;23.380;2023-03-15T07:04:14;7.40;;;5.88;;
8279;SDS011;8335;42.646;23.380;2023-03-15T07:06:41;10.15;;;5.85;;
8279;SDS011;8335;42.646;23.380;2023-03-15T07:09:09;14.52;;;7.70;;
8279;SDS011;8335;42.646;23.380;2023-03-15T07:11:36;14.77;;;6.57;;
8279;SDS011;8335;42.646;23.380;2023-03-15T07:14:02;15.25;;;7.82;;
8279;SDS011;8335;42.646;23.380;2023-03-15T07:16:30;13.88;;;7.60;;
8279;SDS011;8335;42.646;23.380;2023-03-15T07:18:56;14.90;;;7.68;;
8279;SDS011;8335;42.646;23.380;2023-03-15T07:21:25;11.15;;;7.60;;
8279;SDS011;8335;42.646;23.380;2023-03-15T07:23:52;15.50;;;7.78;;
8279;SDS011;8335;42.646;23.380;2023-03-15T07:26:19;12.02;;;6.72;;
8279;SDS011;8335;42.646;23.380;2023-03-15T07:28:46;14.35;;;6.72;;
8279;SDS011;8335;42.646;23.380;2023-03-15T07:31:12;15.65;;;6.40;;
8279;SDS011;8335;42.646;23.380;2023-03-15T07:33:40;16.35;;;6.22;;
8279;SDS011;8335;42.646;23.380;2023-03-15T07:36:07;13.50;;;5.95;;
8279;SDS011;8335;42.646;23.380;2023-03-15T07:38:36;10.35;;;6.43;;
8279;SDS011;8335;42.646;23.380;2023-03-15T07:41:03;11.05;;;7.50;;
8279;SDS011;8335;42.646;23.380;2023-03-15T07:43:31;14.02;;;7.07;;
8279;SDS011;8335;42.646;23.380;2023-03-15T07:45:58;18.52;;;7.10;;
8279;SDS011;8335;42.646;23.380;2023-03-15T07:48:25;12.88;;;7.35;;
8279;SDS011;8335;42.646;23.380;2023-03-15T07:50:53;10.52;;;6.15;;
8279;SDS011;8335;42.646;23.380;2023-03-15T07:53:20;9.10;;;5.72;;
8279;SDS011;8335;42.646;23.380;2023-03-15T07:55:48;11.00;;;6.20;;
8279;SDS011;8335;42.646;23.380;2023-03-15T07:58:18;8.93;;;5.55;;
8279;SDS011;8335;42.646;23.380;2023-03-15T08:00:44;10.45;;;5.90;;
8279;SDS011;8335;42.646;23.380;2023-03-15T08:03:11;8.65;;;5.75;;
8279;SDS011;8335;42.646;23.380;2023-03-15T08:05:38;9.73;;;5.32;;
8279;SDS011;8335;42.646;23.380;2023-03-15T08:08:05;13.10;;;5.90;;
8279;SDS011;8335;42.646;23.380;2023-03-15T08:10:32;13.90;;;5.70;;
8279;SDS011;8335;42.646;23.380;2023-03-15T08:13:00;14.68;;;5.60;;
8279;SDS011;8335;42.646;23.380;2023-03-15T08:15:27;12.45;;;5.32;;
8279;SDS011;8335;42.646;23.380;2023-03-15T08:17:54;12.60;;;5.90;;
8279;SDS011;8335;42.646;23.380;2023-03-15T08:20:20;9.98;;;5.35;;
8279;SDS011;8335;42.646;23.380;2023-03-15T08:22:48;12.35;;;5.38;;
8279;SDS011;8335;42.646;23.380;2023-03-15T08:25:16;7.47;;;4.55;;
8279;SDS011;8335;42.646;23.380;2023-03-15T08:27:44;8.70;;;4.88;;
8279;SDS011;8335;42.646;23.380;2023-03-15T08:30:13;9.15;;;4.82;;
8279;SDS011;8335;42.646;23.380;2023-03-15T08:32:41;7.35;;;4.18;;
8279;SDS011;8335;42.646;23.380;2023-03-15T08:35:09;10.15;;;4.60;;
8279;SDS011;8335;42.646;23.380;2023-03-15T08:37:38;8.60;;;4.28;;
8279;SDS011;8335;42.646;23.380;2023-03-15T08:40:06;7.05;;;4.05;;
8279;SDS011;8335;42.646;23.380;2023-03-15T08:42:34;9.88;;;4.60;;
8279;SDS011;8335;42.646;23.380;2023-03-15T08:45:01;6.05;;;3.78;;
8279;SDS011;8335;42.646;23.380;2023-03-15T08:47:30;8.18;;;4.60;;
8279;SDS011;8335;42.646;23.380;2023-03-15T08:49:59;13.15;;;4.57;;
8279;SDS011;8335;42.646;23.380;2023-03-15T08:52:26;15.48;;;4.60;;
8279;SDS011;8335;42.646;23.380;2023-03-15T08:54:52;18.67;;;4.80;;
8279;SDS011;8335;42.646;23.380;2023-03-15T08:57:19;15.00;;;4.95;;
8279;SDS011;8335;42.646;23.380;2023-03-15T08:59:49;9.18;;;4.45;;
8279;SDS011;8335;42.646;23.380;2023-03-15T09:02:16;8.60;;;4.47;;
8279;SDS011;8335;42.646;23.380;2023-03-15T09:04:45;11.57;;;4.85;;
8279;SDS011;8335;42.646;23.380;2023-03-15T09:07:11;10.23;;;4.57;;
8279;SDS011;8335;42.646;23.380;2023-03-15T09:09:39;9.25;;;4.90;;
8279;SDS011;8335;42.646;23.380;2023-03-15T09:12:13;6.90;;;3.95;;
8279;SDS011;8335;42.646;23.380;2023-03-15T09:14:40;9.10;;;4.22;;
8279;SDS011;8335;42.646;23.380;2023-03-15T09:17:07;6.57;;;4.30;;
8279;SDS011;8335;42.646;23.380;2023-03-15T09:19:35;9.85;;;4.68;;
8279;SDS011;8335;42.646;23.380;2023-03-15T09:22:03;11.00;;;5.32;;
8279;SDS011;8335;42.646;23.380;2023-03-15T09:24:30;15.23;;;7.47;;
8279;SDS011;8335;42.646;23.380;2023-03-15T09:26:57;11.35;;;5.50;;
8279;SDS011;8335;42.646;23.380;2023-03-15T09:29:24;8.83;;;5.23;;
8279;SDS011;8335;42.646;23.380;2023-03-15T09:31:51;14.80;;;5.23;;
8279;SDS011;8335;42.646;23.380;2023-03-15T09:34:17;14.03;;;5.87;;
8279;SDS011;8335;42.646;23.380;2023-03-15T09:36:44;11.13;;;4.80;;
8279;SDS011;8335;42.646;23.380;2023-03-15T09:39:18;9.47;;;4.90;;
8279;SDS011;8335;42.646;23.380;2023-03-15T09:41:46;7.20;;;5.30;;
8279;SDS011;8335;42.646;23.380;2023-03-15T09:44:17;6.80;;;4.57;;
8279;SDS011;8335;42.646;23.380;2023-03-15T09:47:00;10.07;;;5.22;;
8279;SDS011;8335;42.646;23.380;2023-03-15T09:49:38;11.63;;;5.60;;
8279;SDS011;8335;42.646;23.380;2023-03-15T09:52:14;11.03;;;5.30;;
8279;SDS011;8335;42.646;23.380;2023-03-15T09:54:51;12.77;;;5.20;;
8279;SDS011;8335;42.646;23.380;2023-03-15T09:57:24;8.80;;;4.97;;
8279;SDS011;8335;42.646;23.380;2023-03-15T10:00:00;12.93;;;5.50;;
8279;SDS011;8335;42.646;23.380;2023-03-15T10:02:31;7.43;;;4.53;;
8279;SDS011;8335;42.646;23.380;2023-03-15T10:04:58;8.67;;;5.10;;
8279;SDS011;8335;42.646;23.380;2023-03-15T10:07:29;6.43;;;4.30;;
8279;SDS011;8335;42.646;23.380;2023-03-15T10:09:57;7.10;;;4.47;;
8279;SDS011;8335;42.646;23.380;2023-03-15T10:12:26;10.27;;;4.47;;
8279;SDS011;8335;42.646;23.380;2023-03-15T10:14:58;5.17;;;3.90;;
8279;SDS011;8335;42.646;23.380;2023-03-15T10:17:36;10.53;;;4.03;;
8279;SDS011;8335;42.646;23.380;2023-03-15T10:20:11;8.80;;;4.43;;
8279;SDS011;8335;42.646;23.380;2023-03-15T10:22:43;11.73;;;4.50;;
8279;SDS011;8335;42.646;23.380;2023-03-15T10:25:19;8.03;;;4.03;;
8279;SDS011;8335;42.646;23.380;2023-03-15T10:27:51;7.97;;;3.90;;
8279;SDS011;8335;42.646;23.380;2023-03-15T10:30:22;8.20;;;4.40;;
8279;SDS011;8335;42.646;23.380;2023-03-15T10:32:51;8.90;;;4.23;;
8279;SDS011;8335;42.646;23.380;2023-03-15T10:35:22;7.97;;;4.80;;
8279;SDS011;8335;42.646;23.380;2023-03-15T10:37:48;12.10;;;4.47;;
8279;SDS011;8335;42.646;23.380;2023-03-15T10:40:15;9.90;;;4.37;;
8279;SDS011;8335;42.646;23.380;2023-03-15T10:43:11;11.33;;;4.60;;
8279;SDS011;8335;42.646;23.380;2023-03-15T10:45:46;9.23;;;4.53;;
8279;SDS011;8335;42.646;23.380;2023-03-15T10:48:23;6.30;;;4.03;;
8279;SDS011;8335;42.646;23.380;2023-03-15T10:50:50;11.30;;;5.90;;
8279;SDS011;8335;42.646;23.380;2023-03-15T10:53:20;9.50;;;4.43;;
8279;SDS011;8335;42.646;23.380;2023-03-15T10:55:56;6.70;;;4.60;;
8279;SDS011;8335;42.646;23.380;2023-03-15T10:58:25;13.10;;;4.73;;
8279;SDS011;8335;42.646;23.380;2023-03-15T11:00:57;8.00;;;4.53;;
8279;SDS011;8335;42.646;23.380;2023-03-15T11:03:26;9.67;;;4.70;;
8279;SDS011;8335;42.646;23.380;2023-03-15T11:05:56;11.90;;;4.23;;
8279;SDS011;8335;42.646;23.380;2023-03-15T11:08:24;6.10;;;3.93;;
8279;SDS011;8335;42.646;23.380;2023-03-15T11:11:07;10.27;;;4.00;;
8279;SDS011;8335;42.646;23.380;2023-03-15T11:13:35;7.67;;;4.27;;
8279;SDS011;8335;42.646;23.380;2023-03-15T11:16:04;7.43;;;5.10;;
8279;SDS011;8335;42.646;23.380;2023-03-15T11:18:35;5.37;;;4.17;;
8279;SDS011;8335;42.646;23.380;2023-03-15T11:21:09;9.50;;;4.63;;
8279;SDS011;8335;42.646;23.380;2023-03-15T11:23:40;6.80;;;3.83;;
8279;SDS011;8335;42.646;23.380;2023-03-15T11:26:14;11.07;;;4.93;;
8279;SDS011;8335;42.646;23.380;2023-03-15T11:28:45;9.87;;;4.20;;
8279;SDS011;8335;42.646;23.380;2023-03-15T11:31:15;9.33;;;6.27;;
8279;SDS011;8335;42.646;23.380;2023-03-15T11:33:44;9.27;;;5.37;;
8279;SDS011;8335;42.646;23.380;2023-03-15T11:36:17;10.73;;;4.57;;
8279;SDS011;8335;42.646;23.380;2023-03-15T11:38:46;10.67;;;4.63;;
8279;SDS011;8335;42.646;23.380;2023-03-15T11:41:25;9.73;;;4.63;;
8279;SDS011;8335;42.646;23.380;2023-03-15T11:44:01;7.40;;;4.57;;
8279;SDS011;8335;42.646;23.380;2023-03-15T11:46:46;8.33;;;4.87;;
8279;SDS011;8335;42.646;23.380;2023-03-15T11:49:16;9.90;;;5.57;;
8279;SDS011;8335;42.646;23.380;2023-03-15T11:51:56;6.43;;;4.60;;
8279;SDS011;8335;42.646;23.380;2023-03-15T11:54:23;12.77;;;4.63;;
8279;SDS011;8335;42.646;23.380;2023-03-15T11:56:54;8.00;;;4.17;;
8279;SDS011;8335;42.646;23.380;2023-03-15T11:59:26;7.07;;;4.67;;
8279;SDS011;8335;42.646;23.380;2023-03-15T12:01:57;8.53;;;4.87;;
8279;SDS011;8335;42.646;23.380;2023-03-15T12:04:28;11.00;;;4.57;;
8279;SDS011;8335;42.646;23.380;2023-03-15T12:07:23;9.23;;;4.50;;
8279;SDS011;8335;42.646;23.380;2023-03-15T12:10:18;8.90;;;4.60;;
8279;SDS011;8335;42.646;23.380;2023-03-15T12:12:56;10.37;;;4.70;;
8279;SDS011;8335;42.646;23.380;2023-03-15T12:15:41;7.23;;;4.83;;
8279;SDS011;8335;42.646;23.380;2023-03-15T12:18:14;8.60;;;5.00;;
8279;SDS011;8335;42.646;23.380;2023-03-15T12:20:47;8.70;;;5.00;;
8279;SDS011;8335;42.646;23.380;2023-03-15T12:23:20;23.63;;;5.00;;
8279;SDS011;8335;42.646;23.380;2023-03-15T12:25:56;11.07;;;4.70;;
8279;SDS011;8335;42.646;23.380;2023-03-15T12:28:26;14.50;;;6.17;;
8279;SDS011;8335;42.646;23.380;2023-03-15T12:30:59;8.70;;;4.77;;
8279;SDS011;8335;42.646;23.380;2023-03-15T12:33:31;7.83;;;4.83;;
8279;SDS011;8335;42.646;23.380;2023-03-15T12:36:00;10.13;;;4.80;;
8279;SDS011;8335;42.646;23.380;2023-03-15T12:38:31;10.73;;;4.73;;
8279;SDS011;8335;42.646;23.380;2023-03-15T12:41:05;16.77;;;5.97;;
8279;SDS011;8335;42.646;23.380;2023-03-15T12:43:38;12.60;;;5.37;;
8279;SDS011;8335;42.646;23.380;2023-03-15T12:46:07;12.57;;;5.23;;
8279;SDS011;8335;42.646;23.380;2023-03-15T12:49:26;9.27;;;5.00;;
8279;SDS011;8335;42.646;23.380;2023-03-15T12:51:57;8.00;;;4.93;;
8279;SDS011;8335;42.646;23.380;2023-03-15T12:54:27;7.50;;;5.23;;
8279;SDS011;8335;42.646;23.380;2023-03-15T12:56:58;7.73;;;4.60;;
8279;SDS011;8335;42.646;23.380;2023-03-15T12:59:29;13.33;;;5.70;;
8279;SDS011;8335;42.646;23.380;2023-03-15T13:02:00;10.53;;;5.33;;
8279;SDS011;8335;42.646;23.380;2023-03-15T13:04:30;10.57;;;5.43;;
8279;SDS011;8335;42.646;23.380;2023-03-15T13:07:00;14.87;;;4.93;;
8279;SDS011;8335;42.646;23.380;2023-03-15T13:09:52;8.97;;;4.97;;
8279;SDS011;8335;42.646;23.380;2023-03-15T13:12:33;7.93;;;4.80;;
8279;SDS011;8335;42.646;23.380;2023-03-15T13:15:06;9.77;;;4.73;;
8279;SDS011;8335;42.646;23.380;2023-03-15T13:17:40;8.57;;;5.23;;
8279;SDS011;8335;42.646;23.380;2023-03-15T13:23:12;8.00;;;4.63;;
8279;SDS011;8335;42.646;23.380;2023-03-15T13:25:43;7.13;;;4.20;;
8279;SDS011;8335;42.646;23.380;2023-03-15T13:28:19;12.17;;;4.70;;
8279;SDS011;8335;42.646;23.380;2023-03-15T13:30:48;8.50;;;4.70;;
8279;SDS011;8335;42.646;23.380;2023-03-15T13:33:18;8.87;;;4.57;;
8279;SDS011;8335;42.646;23.380;2023-03-15T13:35:53;7.63;;;4.37;;
8279;SDS011;8335;42.646;23.380;2023-03-15T13:38:28;6.50;;;4.13;;
8279;SDS011;8335;42.646;23.380;2023-03-15T13:40:57;6.87;;;4.70;;
8279;SDS011;8335;42.646;23.380;2023-03-15T13:43:28;11.47;;;4.63;;
8279;SDS011;8335;42.646;23.380;2023-03-15T13:45:56;6.07;;;4.30;;
8279;SDS011;8335;42.646;23.380;2023-03-15T13:48:27;12.97;;;5.67;;
8279;SDS011;8335;42.646;23.380;2023-03-15T13:50:59;11.43;;;7.00;;
8279;SDS011;8335;42.646;23.380;2023-03-15T13:53:31;10.33;;;5.53;;
8279;SDS011;8335;42.646;23.380;2023-03-15T13:55:59;10.13;;;5.33;;
8279;SDS011;8335;42.646;23.380;2023-03-15T13:58:27;10.63;;;5.43;;
8279;SDS011;8335;42.646;23.380;2023-03-15T14:00:55;10.47;;;5.20;;
8279;SDS011;8335;42.646;23.380;2023-03-15T14:03:25;7.70;;;4.70;;
8279;SDS011;8335;42.646;23.380;2023-03-15T14:05:53;10.73;;;4.73;;
8279;SDS011;8335;42.646;23.380;2023-03-15T14:08:24;15.23;;;5.60;;
8279;SDS011;8335;42.646;23.380;2023-03-15T14:10:56;15.93;;;5.30;;
8279;SDS011;8335;42.646;23.380;2023-03-15T14:13:25;7.93;;;5.20;;
8279;SDS011;8335;42.646;23.380;2023-03-15T14:15:56;16.33;;;6.13;;
8279;SDS011;8335;42.646;23.380;2023-03-15T14:18:27;11.83;;;6.57;;
8279;SDS011;8335;42.646;23.380;2023-03-15T14:20:57;10.17;;;6.17;;
8279;SDS011;8335;42.646;23.380;2023-03-15T14:23:28;14.73;;;7.13;;
8279;SDS011;8335;42.646;23.380;2023-03-15T14:25:56;10.63;;;6.60;;
8279;SDS011;8335;42.646;23.380;2023-03-15T14:28:31;11.87;;;6.33;;
8279;SDS011;8335;42.646;23.380;2023-03-15T14:30:58;13.30;;;6.40;;
8279;SDS011;8335;42.646;23.380;2023-03-15T14:33:28;12.90;;;6.23;;
8279;SDS011;8335;42.646;23.380;2023-03-15T14:35:58;14.53;;;7.60;;
8279;SDS011;8335;42.646;23.380;2023-03-15T14:38:29;22.30;;;8.00;;
8279;SDS011;8335;42.646;23.380;2023-03-15T14:41:09;16.07;;;7.67;;
8279;SDS011;8335;42.646;23.380;2023-03-15T14:43:42;16.10;;;8.60;;
8279;SDS011;8335;42.646;23.380;2023-03-15T14:46:09;14.87;;;8.03;;
8279;SDS011;8335;42.646;23.380;2023-03-15T14:48:36;12.97;;;8.50;;
8279;SDS011;8335;42.646;23.380;2023-03-15T14:51:03;16.80;;;8.57;;
8279;SDS011;8335;42.646;23.380;2023-03-15T14:53:32;18.00;;;9.00;;
8279;SDS011;8335;42.646;23.380;2023-03-15T14:56:01;17.13;;;7.67;;
8279;SDS011;8335;42.646;23.380;2023-03-15T14:58:28;13.17;;;7.40;;
8279;SDS011;8335;42.646;23.380;2023-03-15T15:00:55;18.27;;;6.67;;
8279;SDS011;8335;42.646;23.380;2023-03-15T15:03:24;12.87;;;6.10;;
8279;SDS011;8335;42.646;23.380;2023-03-15T15:05:58;13.10;;;6.10;;
8279;SDS011;8335;42.646;23.380;2023-03-15T15:08:25;8.83;;;5.63;;
8279;SDS011;8335;42.646;23.380;2023-03-15T15:10:54;11.90;;;6.07;;
8279;SDS011;8335;42.646;23.380;2023-03-15T15:13:23;13.63;;;6.20;;
8279;SDS011;8335;42.646;23.380;2023-03-15T15:15:51;12.23;;;5.90;;